Country
Station

 

Weather  for  Kiruna Airport  -  Sweden    Sweden

  
2 °C (36 °F)
    
 
 

Current METAR for Kiruna Airport is :

ESNQ 180950Z 07005KT 6000 RASN VV006 02/02 Q1008

 

This is a report for Kiruna Airport - Sweden.
 
The report was made 23 minutes ago, at 09:50 UTC .
The wind was blowing at a speed of 2.6 meters per second (5.8 miles per hour) from east/northeast (070°).
 
The temperature was 2 °C (36 °F), with a dew-point at 2 °C (36 °F).
The temperature felt like -1 °C (31 °F).
 
The atmospheric pressure was 1008 hPa (29.77 inHg).
The relative humidity was 100.0%.
 
There were a vertical visibility of 183 meter (600 feet).
 
The overall visibility was 6.0 kilometers (3.7 miles).
 
Currently moderate rain, snow.

 
 
 
 

Country :   A   B   C   D   E   F   G   H   I   J   K   L   M   N   O   P   Q   R   S   T   U   V   W   Y   Z

 

Site Info  |  Disclaimer  |  Credits  |  Privacy
Contact us  |  Add to favorites
© 2013-2019 METARs - All rights reserved